Time;durP1;ratioP1;P1;durP2;ratioP2;P2;SDS_P1;SDS_P2;PMS_P1;PMS_P2;Temp;Humidity;BMP_temperature;BMP_pressure;BME280_temperature;BME280_humidity;BME280_pressure;Samples;Min_cycle;Max_cycle;Signal;HPM_P1;HPM_P2
2021/07/20 00:01:39;;;;;;;7.42;6.70;;;;;;;27.61;62.95;99232.80;1840590;77;20980;-71
2021/07/20 00:04:06;;;;;;;8.03;7.22;;;;;;;27.61;62.97;99225.98;1846944;77;21097;-71
2021/07/20 00:06:32;;;;;;;7.72;6.90;;;;;;;27.63;62.91;99228.42;1839105;77;21484;-71
2021/07/20 00:09:00;;;;;;;7.25;6.53;;;;;;;27.62;62.96;99233.08;1843208;77;21080;-70
2021/07/20 00:11:26;;;;;;;7.25;6.53;;;;;;;27.62;62.95;99233.08;1841242;77;21453;-71
2021/07/20 00:13:53;;;;;;;7.03;6.33;;;;;;;27.62;62.97;99234.97;1832852;77;20969;-70
2021/07/20 00:16:19;;;;;;;7.15;6.45;;;;;;;27.62;63.01;99247.25;1848826;77;20985;-71
2021/07/20 00:18:47;;;;;;;7.55;6.92;;;;;;;27.62;62.97;99243.16;1833617;77;20957;-70
2021/07/20 00:21:13;;;;;;;8.30;7.50;;;;;;;27.62;62.98;99243.16;1839924;77;21015;-71
2021/07/20 00:23:40;;;;;;;6.75;6.10;;;;;;;27.61;62.98;99238.26;1856074;77;21504;-70
2021/07/20 00:26:08;;;;;;;7.10;6.50;;;;;;;27.61;62.98;99235.53;1799493;78;21434;-71
2021/07/20 00:28:35;;;;;;;8.20;6.72;;;;;;;27.61;63.05;99227.91;1790148;78;22004;-71
2021/07/20 00:31:02;;;;;;;8.18;7.45;;;;;;;27.61;62.97;99227.91;1790261;78;21005;-71
2021/07/20 00:33:29;;;;;;;6.95;6.30;;;;;;;27.60;63.03;99231.20;1804964;78;21108;-71
2021/07/20 00:35:55;;;;;;;7.72;7.03;;;;;;;27.59;63.04;99230.92;1797730;78;21005;-70
2021/07/20 00:38:22;;;;;;;6.72;6.12;;;;;;;27.59;63.05;99239.11;1817098;78;20998;-72
2021/07/20 00:40:53;;;;;;;7.00;6.30;;;;;;;27.59;63.00;99240.47;1801659;78;22357;-71
2021/07/20 00:43:19;;;;;;;6.83;6.12;;;;;;;27.59;63.03;99244.56;1799853;78;21528;-70
2021/07/20 00:45:46;;;;;;;6.78;6.17;;;;;;;27.59;63.03;99245.92;1797828;78;21014;-71
2021/07/20 00:48:13;;;;;;;8.50;6.90;;;;;;;27.58;63.09;99247.58;1790311;78;21013;-71
2021/07/20 00:50:42;;;;;;;7.92;7.22;;;;;;;27.58;63.12;99246.21;1807941;78;21068;-71
2021/07/20 00:53:11;;;;;;;6.67;6.08;;;;;;;27.58;63.06;99251.67;1757880;79;22043;-71
2021/07/20 00:55:39;;;;;;;6.72;6.10;;;;;;;27.57;63.11;99248.70;1779314;80;21078;-71
2021/07/20 00:58:08;;;;;;;6.70;5.92;;;;;;;27.56;63.07;99238.31;1809079;78;21533;-71
2021/07/20 01:00:35;;;;;;;6.72;6.10;;;;;;;27.56;63.10;99238.31;1775696;78;21047;-70
2021/07/20 01:03:05;;;;;;;7.40;6.40;;;;;;;27.54;63.07;99235.07;1783961;80;21061;-71
2021/07/20 01:05:33;;;;;;;6.70;6.10;;;;;;;27.55;63.07;99236.70;1782372;78;21581;-71
2021/07/20 01:08:05;;;;;;;6.45;5.85;;;;;;;27.55;63.12;99234.54;1800208;78;21549;-70
2021/07/20 01:10:33;;;;;;;7.37;6.67;;;;;;;27.54;63.06;99230.98;1764189;80;21088;-71
2021/07/20 01:13:00;;;;;;;6.90;6.17;;;;;;;27.54;63.09;99232.34;1796595;78;21014;-71
2021/07/20 01:15:27;;;;;;;6.87;5.92;;;;;;;27.53;63.06;99230.73;1789170;80;21033;-71
2021/07/20 01:17:56;;;;;;;6.53;5.92;;;;;;;27.53;63.06;99226.64;1765877;80;21109;-71
2021/07/20 01:20:27;;;;;;;6.37;5.72;;;;;;;27.53;63.13;99226.64;1781645;80;21056;-72
2021/07/20 01:23:17;;;;;;;6.53;5.92;;;;;;;27.53;63.06;99223.91;1809555;78;21021;-71
2021/07/20 01:25:42;;;;;;;6.58;5.90;;;;;;;27.52;63.08;99228.30;1757697;80;21038;-71
2021/07/20 01:28:17;;;;;;;6.97;6.28;;;;;;;27.51;63.08;99228.85;1778924;80;21386;-71
2021/07/20 01:30:43;;;;;;;6.65;6.05;;;;;;;27.52;63.08;99222.84;1772515;80;21100;-70
2021/07/20 01:33:12;;;;;;;6.28;5.78;;;;;;;27.51;63.06;99222.59;1794538;78;21056;-71
2021/07/20 01:35:41;;;;;;;7.70;6.15;;;;;;;27.50;63.05;99231.31;1780728;80;21092;-70
2021/07/20 01:38:08;;;;;;;6.10;5.60;;;;;;;27.50;63.09;99237.33;1791399;80;21061;-70
2021/07/20 01:40:58;;;;;;;6.67;6.08;;;;;;;27.50;63.03;99241.41;1772678;80;21128;-71
2021/07/20 01:43:25;;;;;;;5.45;4.95;;;;;;;27.50;63.05;99240.86;1753265;79;21786;-70
2021/07/20 01:45:54;;;;;;;6.03;5.42;;;;;;;27.49;63.10;99237.88;1762385;79;21489;-70
2021/07/20 01:48:29;;;;;;;5.72;5.12;;;;;;;27.48;63.08;99237.61;1732704;79;21100;-69
2021/07/20 01:50:56;;;;;;;6.70;5.78;;;;;;;27.49;63.10;99247.96;1732934;81;21064;-71
2021/07/20 01:53:23;;;;;;;5.78;5.28;;;;;;;27.47;63.07;99237.36;1762458;81;21124;-70
2021/07/20 01:55:50;;;;;;;5.90;5.40;;;;;;;27.47;63.10;99244.19;1757331;79;22345;-71
2021/07/20 01:58:17;;;;;;;6.47;5.87;;;;;;;27.46;63.09;99243.35;1754879;79;21097;-71
2021/07/20 02:00:45;;;;;;;6.53;5.92;;;;;;;27.47;63.14;99249.64;1742885;79;21044;-71
2021/07/20 02:08:50;;;;;;;6.20;5.62;;;;;;;27.46;63.15;99239.82;1757227;79;23079;-71
2021/07/20 02:11:24;;;;;;;6.30;5.70;;;;;;;27.44;63.14;99242.83;1749042;79;21013;-70
2021/07/20 02:14:00;;;;;;;6.53;5.65;;;;;;;27.44;63.19;99235.21;1758784;81;21545;-70
2021/07/20 02:16:47;;;;;;;5.70;5.20;;;;;;;27.43;63.22;99234.97;1748993;79;21021;-70
2021/07/20 02:19:25;;;;;;;5.70;5.20;;;;;;;27.42;63.20;99231.97;1761127;79;21608;-70
2021/07/20 02:21:56;;;;;;;6.20;5.65;;;;;;;27.42;63.20;99233.33;1743781;79;21138;-70
2021/07/20 02:24:28;;;;;;;5.70;5.20;;;;;;;27.41;63.21;99237.14;1743496;79;21048;-71
2021/07/20 02:26:55;;;;;;;6.67;5.50;;;;;;;27.41;63.24;99227.07;1721910;81;21056;-71
2021/07/20 02:29:22;;;;;;;5.80;5.30;;;;;;;27.40;63.23;99234.98;1747178;79;21050;-71
2021/07/20 02:31:51;;;;;;;5.42;4.92;;;;;;;27.42;63.18;99230.59;1749858;79;21056;-69
2021/07/20 02:34:18;;;;;;;6.65;6.03;;;;;;;27.41;63.21;99237.14;1729947;79;21831;-71
2021/07/20 02:36:45;;;;;;;6.20;5.15;;;;;;;27.40;63.23;99233.61;1747606;79;21119;-71
2021/07/20 02:39:12;;;;;;;5.45;5.03;;;;;;;27.40;63.27;99230.89;1751134;79;21084;-70
2021/07/20 02:41:41;;;;;;;5.85;5.35;;;;;;;27.40;63.19;99240.44;1750911;79;21033;-70
2021/07/20 02:44:07;;;;;;;5.30;4.90;;;;;;;27.40;63.25;99241.80;1763059;79;21115;-71
2021/07/20 02:46:35;;;;;;;5.17;4.78;;;;;;;27.39;63.23;99245.64;1752098;79;21126;-71
2021/07/20 02:49:03;;;;;;;5.22;4.83;;;;;;;27.40;63.25;99248.61;1758433;79;21541;-71
2021/07/20 02:51:30;;;;;;;5.85;5.35;;;;;;;27.40;63.25;99249.17;1753430;81;21072;-72
2021/07/20 02:53:59;;;;;;;5.62;5.17;;;;;;;27.41;63.27;99252.98;1747180;79;21037;-71
2021/07/20 02:56:27;;;;;;;5.72;5.25;;;;;;;27.40;63.25;99245.89;1748004;79;21057;-71
2021/07/20 02:59:04;;;;;;;6.08;5.50;;;;;;;27.40;63.18;99251.34;1747793;79;21065;-71
2021/07/20 03:01:52;;;;;;;5.58;5.08;;;;;;;27.41;63.17;99248.05;1749323;79;21089;-71
2021/07/20 03:04:19;;;;;;;5.35;4.85;;;;;;;27.41;63.24;99243.97;1744635;79;21067;-71
2021/07/20 03:06:51;;;;;;;5.90;5.40;;;;;;;27.40;63.25;99253.27;1740762;80;21079;-70
2021/07/20 03:09:19;;;;;;;5.85;5.35;;;;;;;27.39;63.29;99254.35;1762918;79;21079;-71
2021/07/20 03:11:49;;;;;;;5.80;5.30;;;;;;;27.38;63.26;99261.73;1743351;80;21108;-70
2021/07/20 03:14:19;;;;;;;5.58;5.08;;;;;;;27.38;63.25;99269.11;1735520;81;21101;-70
2021/07/20 03:16:55;;;;;;;5.87;5.37;;;;;;;27.39;63.26;99272.08;1721479;82;21635;-71
2021/07/20 03:19:25;;;;;;;5.65;5.15;;;;;;;27.38;63.23;99263.09;1769250;80;21037;-70
2021/07/20 03:21:53;;;;;;;4.97;4.47;;;;;;;27.38;63.26;99256.28;1753269;79;21068;-69
2021/07/20 03:24:22;;;;;;;5.83;5.25;;;;;;;27.38;63.27;99251.38;1758466;79;21106;-69
2021/07/20 03:26:50;;;;;;;5.60;5.20;;;;;;;27.38;63.31;99248.66;1738401;80;21012;-71
2021/07/20 03:29:19;;;;;;;5.05;4.55;;;;;;;27.38;63.35;99243.20;1713370;81;21666;-71
2021/07/20 03:31:46;;;;;;;5.40;5.00;;;;;;;27.39;63.31;99250.27;1745312;80;21008;-70
2021/07/20 03:34:12;;;;;;;5.05;4.65;;;;;;;27.39;63.38;99251.63;1752252;80;21032;-71
2021/07/20 03:36:41;;;;;;;5.85;5.35;;;;;;;27.38;63.36;99252.75;1746165;79;21096;-70
2021/07/20 03:39:07;;;;;;;5.25;4.85;;;;;;;27.39;63.34;99257.08;1716553;82;21650;-71
2021/07/20 03:41:34;;;;;;;4.90;4.50;;;;;;;27.39;63.41;99254.35;1758495;80;21543;-70
2021/07/20 03:44:01;;;;;;;5.40;4.97;;;;;;;27.39;63.41;99245.64;1728207;81;21093;-70
2021/07/20 03:46:28;;;;;;;5.10;4.70;;;;;;;27.39;63.38;99246.17;1741880;80;21147;-71
2021/07/20 03:48:55;;;;;;;4.87;4.47;;;;;;;27.39;63.40;99244.28;1731511;80;21806;-71
2021/07/20 03:51:24;;;;;;;5.20;4.80;;;;;;;27.39;63.44;99248.38;1735109;80;21540;-72
2021/07/20 03:53:51;;;;;;;5.37;4.87;;;;;;;27.39;63.47;99255.19;1753556;80;21031;-71
2021/07/20 03:56:18;;;;;;;5.55;5.05;;;;;;;27.40;63.44;99255.99;1740064;81;21041;-70
2021/07/20 03:58:47;;;;;;;5.67;5.17;;;;;;;27.41;63.46;99254.87;1754393;80;21010;-70
2021/07/20 04:01:14;;;;;;;5.30;4.90;;;;;;;27.42;63.44;99249.69;1740182;80;21104;-72
2021/07/20 04:03:42;;;;;;;5.12;4.62;;;;;;;27.42;63.40;99254.59;1751943;80;21567;-70
2021/07/20 04:06:10;;;;;;;4.90;4.45;;;;;;;27.42;63.46;99253.78;1753166;80;21486;-71
2021/07/20 04:08:44;;;;;;;5.25;4.80;;;;;;;27.43;63.44;99260.88;1720573;80;21057;-71
2021/07/20 04:11:14;;;;;;;5.92;5.37;;;;;;;27.43;63.49;99261.69;1736903;80;21022;-71
2021/07/20 04:13:42;;;;;;;5.22;4.72;;;;;;;27.44;63.45;99258.39;1732504;80;21077;-70
2021/07/20 04:16:16;;;;;;;4.67;4.28;;;;;;;27.46;63.46;99263.00;1742187;81;21014;-71
2021/07/20 04:18:43;;;;;;;4.83;4.40;;;;;;;27.46;63.41;99273.36;1752053;81;21053;-71
2021/07/20 04:21:11;;;;;;;5.37;4.87;;;;;;;27.47;63.46;99278.28;1728532;81;21053;-72
2021/07/20 04:23:37;;;;;;;5.47;4.97;;;;;;;27.48;63.43;99279.89;1754754;81;21025;-71
2021/07/20 04:26:07;;;;;;;5.55;5.05;;;;;;;27.49;63.40;99285.62;1750598;80;21143;-72
2021/07/20 04:28:35;;;;;;;5.05;4.65;;;;;;;27.51;63.46;99286.70;1743529;80;21089;-72
2021/07/20 04:31:03;;;;;;;5.50;5.00;;;;;;;27.52;63.45;99286.94;1744230;81;21534;-71
2021/07/20 04:33:32;;;;;;;5.40;5.00;;;;;;;27.53;63.41;99283.13;1746213;81;21544;-71
2021/07/20 04:36:07;;;;;;;5.50;5.00;;;;;;;27.55;63.37;99272.73;1691825;81;21056;-71
2021/07/20 04:38:36;;;;;;;5.50;5.10;;;;;;;27.55;63.31;99273.53;1740028;80;21190;-72
2021/07/20 04:41:03;;;;;;;5.10;4.70;;;;;;;27.55;63.31;99277.63;1737898;80;21041;-71
2021/07/20 04:43:30;;;;;;;5.10;4.70;;;;;;;27.58;63.36;99285.23;1722135;81;21070;-70
2021/07/20 04:45:57;;;;;;;5.45;5.05;;;;;;;27.60;63.39;99288.48;1745339;80;21126;-70
2021/07/20 04:48:24;;;;;;;5.00;4.60;;;;;;;27.63;63.34;99285.72;1728077;81;21077;-71
2021/07/20 04:50:56;;;;;;;5.17;4.78;;;;;;;27.66;63.47;99278.30;1714445;82;21532;-71
2021/07/20 04:53:23;;;;;;;5.12;4.72;;;;;;;27.68;63.39;99276.11;1738844;81;21513;-71
2021/07/20 04:55:51;;;;;;;4.75;4.35;;;;;;;27.72;63.50;99274.95;1739065;81;21014;-72
2021/07/20 04:58:18;;;;;;;5.08;4.67;;;;;;;27.72;63.75;99277.14;1733105;81;21668;-71
2021/07/20 05:00:50;;;;;;;5.35;4.95;;;;;;;27.74;63.87;99273.56;1734138;81;21090;-72
2021/07/20 05:03:18;;;;;;;;;;;;;;;27.77;63.88;99274.33;1743882;80;22568;-72
2021/07/20 05:05:44;;;;;;;4.55;4.25;;;;;;;27.79;63.88;99271.31;1753612;80;20154;-73
2021/07/20 05:08:15;;;;;;;4.83;4.40;;;;;;;27.74;64.00;99272.20;1707625;81;22059;-71
2021/07/20 05:10:48;;;;;;;5.65;5.20;;;;;;;27.76;64.04;99274.09;1751852;80;21608;-71
2021/07/20 05:13:18;;;;;;;4.83;4.42;;;;;;;27.80;64.05;99272.95;1739468;81;21028;-72
2021/07/20 05:15:50;;;;;;;4.92;4.42;;;;;;;27.81;64.02;99277.29;1750301;80;21116;-71
2021/07/20 05:18:17;;;;;;;5.53;5.12;;;;;;;27.83;63.90;99275.91;1732743;81;21041;-71
2021/07/20 05:20:44;;;;;;;5.20;4.80;;;;;;;27.86;63.93;99279.95;1753447;80;21028;-70
2021/07/20 05:23:15;;;;;;;5.47;4.95;;;;;;;27.88;63.82;99281.87;1759148;80;21029;-71
2021/07/20 05:25:45;;;;;;;5.40;4.90;;;;;;;27.91;63.88;99292.21;1748167;80;21041;-70
2021/07/20 05:28:13;;;;;;;5.53;5.08;;;;;;;27.93;63.78;99291.89;1747550;79;21137;-70
2021/07/20 05:30:42;;;;;;;4.80;4.40;;;;;;;27.95;63.86;99289.68;1741194;80;21089;-71
2021/07/20 05:33:09;;;;;;;5.30;4.80;;;;;;;27.97;63.85;99297.86;1763573;81;21092;-70
2021/07/20 05:35:41;;;;;;;5.20;4.80;;;;;;;27.98;63.78;99295.37;1755328;80;21463;-70
2021/07/20 05:38:08;;;;;;;5.20;4.80;;;;;;;28.02;63.89;99295.03;1742150;80;21602;-71
2021/07/20 05:40:35;;;;;;;5.00;4.60;;;;;;;28.03;63.94;99284.38;1744249;80;21081;-72
2021/07/20 05:43:02;;;;;;;5.08;4.67;;;;;;;28.06;63.87;99289.80;1733148;81;20993;-71
2021/07/20 05:45:36;;;;;;;5.40;4.90;;;;;;;28.07;63.86;99288.70;1747595;80;21084;-71
2021/07/20 05:48:04;;;;;;;4.75;4.35;;;;;;;28.09;63.78;99285.69;1756034;81;21100;-71
2021/07/20 05:50:33;;;;;;;5.65;5.15;;;;;;;28.11;63.74;99287.56;1738209;80;21084;-70
2021/07/20 05:53:22;;;;;;;4.60;4.20;;;;;;;28.11;63.69;99285.64;1754998;80;21175;-70
2021/07/20 05:55:52;;;;;;;5.50;5.10;;;;;;;28.14;63.61;99285.03;1732448;80;21056;-71
2021/07/20 05:58:20;;;;;;;4.72;4.40;;;;;;;28.16;63.75;99295.66;1738001;81;21049;-71
2021/07/20 06:00:48;;;;;;;4.67;4.37;;;;;;;28.17;63.82;99294.01;1746355;80;21513;-71
2021/07/20 06:03:20;;;;;;;4.97;4.58;;;;;;;28.18;63.82;99294.28;1748890;80;21045;-71
2021/07/20 06:05:54;;;;;;;5.15;4.75;;;;;;;28.19;63.80;99289.06;1745156;81;21199;-71
2021/07/20 06:08:22;;;;;;;5.00;4.25;;;;;;;28.22;63.72;99286.28;1713244;81;21040;-71
2021/07/20 06:11:00;;;;;;;4.95;4.55;;;;;;;28.23;63.59;99281.89;1747582;81;21085;-71
2021/07/20 06:13:33;;;;;;;4.85;4.45;;;;;;;28.26;63.56;99283.77;1749890;80;21057;-70
2021/07/20 06:15:59;;;;;;;5.25;4.75;;;;;;;28.27;63.45;99284.84;1740488;80;21136;-71
2021/07/20 06:18:26;;;;;;;4.60;4.22;;;;;;;28.30;63.40;99279.34;1749896;81;21132;-70
2021/07/20 06:20:57;;;;;;;4.95;4.55;;;;;;;28.33;63.29;99285.02;1747667;80;21108;-71
2021/07/20 06:23:24;;;;;;;5.05;4.65;;;;;;;28.35;63.22;99288.27;1741399;80;21596;-71
2021/07/20 06:25:52;;;;;;;5.30;4.90;;;;;;;28.38;63.26;99282.22;1742460;80;21052;-72
2021/07/20 06:28:20;;;;;;;5.15;4.70;;;;;;;28.40;63.18;99281.93;1746751;80;20998;-72
2021/07/20 06:30:47;;;;;;;5.03;4.62;;;;;;;28.42;63.28;99277.78;1739694;81;21796;-72
2021/07/20 06:33:14;;;;;;;4.83;4.42;;;;;;;28.44;63.48;99282.95;1741134;80;21100;-70
2021/07/20 06:35:43;;;;;;;4.50;4.17;;;;;;;28.47;63.52;99278.80;1740972;80;21632;-72
2021/07/20 06:38:12;;;;;;;4.83;4.42;;;;;;;28.49;63.68;99277.42;1734085;80;21035;-72
2021/07/20 06:40:39;;;;;;;4.83;4.42;;;;;;;28.51;63.77;99268.39;1740083;80;21049;-71
2021/07/20 06:43:06;;;;;;;5.00;4.60;;;;;;;28.53;63.81;99261.24;1728955;80;21107;-71
2021/07/20 06:45:36;;;;;;;4.92;4.53;;;;;;;28.55;64.01;99259.86;1719703;81;21570;-72
2021/07/20 06:48:02;;;;;;;4.92;4.53;;;;;;;28.57;64.11;99263.66;1720874;81;21010;-66
2021/07/20 06:50:30;;;;;;;10.90;8.08;;;;;;;28.59;64.70;99271.00;1756018;80;21554;-68
2021/07/20 06:52:56;;;;;;;10.68;8.68;;;;;;;28.60;62.37;99269.87;1738552;80;21099;-72
2021/07/20 06:55:22;;;;;;;9.83;8.90;;;;;;;28.60;61.35;99268.51;1739749;81;21125;-72
2021/07/20 06:57:49;;;;;;;10.75;8.60;;;;;;;28.61;61.11;99268.22;1731991;81;21227;-70
2021/07/20 07:00:17;;;;;;;13.75;8.83;;;;;;;28.62;60.83;99273.92;1750252;81;21557;-70
2021/07/20 07:02:43;;;;;;;11.38;10.10;;;;;;;28.62;60.90;99275.28;1735169;80;21092;-70
2021/07/20 07:05:14;;;;;;;10.45;9.30;;;;;;;28.62;61.27;99275.28;1752408;81;21068;-71
2021/07/20 07:07:41;;;;;;;22.50;15.80;;;;;;;28.62;61.23;99274.48;1736346;81;21137;-71
2021/07/20 07:10:09;;;;;;;20.25;15.00;;;;;;;28.61;60.61;99279.70;1742194;81;21007;-71
2021/07/20 07:12:37;;;;;;;21.17;14.18;;;;;;;28.62;60.45;99286.22;1741713;80;21057;-71
2021/07/20 07:15:06;;;;;;;17.07;12.90;;;;;;;28.61;59.90;99281.88;1741392;80;21024;-71
2021/07/20 07:17:34;;;;;;;22.05;16.70;;;;;;;28.63;59.53;99285.13;1750132;80;21402;-70
2021/07/20 07:20:01;;;;;;;26.82;16.15;;;;;;;28.65;59.53;99287.56;1747027;80;21866;-71
2021/07/20 07:22:27;;;;;;;20.20;15.08;;;;;;;28.66;59.76;99282.90;1743786;80;21059;-69
2021/07/20 07:24:54;;;;;;;19.35;13.32;;;;;;;28.66;59.68;99283.70;1744188;80;21069;-70
2021/07/20 07:27:22;;;;;;;17.82;13.68;;;;;;;28.67;59.44;99285.34;1747534;80;21065;-71
2021/07/20 07:29:49;;;;;;;15.23;12.00;;;;;;;28.67;59.21;99278.51;1739934;80;21042;-69
2021/07/20 07:32:16;;;;;;;13.38;11.97;;;;;;;28.69;59.19;99283.11;1723478;80;21145;-70
2021/07/20 07:34:43;;;;;;;13.70;11.63;;;;;;;28.71;59.27;99284.19;1742157;80;21467;-69
2021/07/20 07:37:09;;;;;;;16.45;11.65;;;;;;;28.72;59.26;99283.86;1752897;80;21026;-69
2021/07/20 07:39:36;;;;;;;13.78;12.18;;;;;;;28.73;59.24;99273.20;1755578;80;21061;-70
2021/07/20 07:42:04;;;;;;;12.90;11.55;;;;;;;28.74;59.30;99274.84;1749120;80;21101;-70
2021/07/20 07:44:31;;;;;;;12.03;10.68;;;;;;;28.76;58.98;99264.41;1756775;79;21765;-72
2021/07/20 07:46:59;;;;;;;11.93;10.82;;;;;;;28.76;59.04;99267.15;1747695;79;21532;-72
2021/07/20 07:49:26;;;;;;;11.70;10.50;;;;;;;28.78;58.67;99258.62;1752652;79;21041;-72
2021/07/20 07:51:53;;;;;;;13.15;10.30;;;;;;;28.78;58.43;99266.29;1757017;79;22386;-70
2021/07/20 07:54:19;;;;;;;10.32;9.18;;;;;;;28.79;58.19;99258.89;1746049;79;21105;-70
2021/07/20 07:56:46;;;;;;;14.00;10.70;;;;;;;28.80;58.05;99257.23;1751542;79;21683;-71
2021/07/20 07:59:13;;;;;;;13.20;10.50;;;;;;;28.81;58.01;99253.94;1755214;79;21494;-73
2021/07/20 08:01:45;;;;;;;11.00;9.90;;;;;;;28.82;58.16;99262.41;1752642;79;21629;-71
2021/07/20 08:04:13;;;;;;;15.15;10.58;;;;;;;28.83;58.03;99257.17;1750113;79;21023;-70
2021/07/20 08:06:41;;;;;;;14.03;11.45;;;;;;;28.85;58.00;99267.25;1753869;79;21048;-70
2021/07/20 08:09:07;;;;;;;11.83;10.40;;;;;;;28.86;58.09;99263.42;1750479;79;22249;-69
2021/07/20 08:11:34;;;;;;;12.10;10.30;;;;;;;28.87;57.89;99263.66;1754858;79;21571;-70
2021/07/20 08:14:02;;;;;;;14.83;11.00;;;;;;;28.89;57.82;99269.63;1756258;79;21023;-71
2021/07/20 08:16:31;;;;;;;11.80;10.72;;;;;;;28.91;57.81;99272.07;1751820;79;21049;-71
2021/07/20 08:18:57;;;;;;;11.63;10.40;;;;;;;28.91;57.81;99263.88;1751747;79;22236;-71
2021/07/20 08:21:25;;;;;;;12.03;10.82;;;;;;;28.92;57.82;99259.48;1748759;79;21861;-69
2021/07/20 08:23:51;;;;;;;12.20;10.90;;;;;;;28.93;57.70;99266.55;1746812;81;21068;-68
2021/07/20 08:26:21;;;;;;;13.75;11.25;;;;;;;28.95;57.70;99268.98;1752968;79;21149;-70
2021/07/20 08:29:10;;;;;;;12.03;10.85;;;;;;;28.95;57.73;99267.63;1755622;79;21568;-70
2021/07/20 08:31:43;;;;;;;10.32;9.33;;;;;;;28.96;57.43;99271.99;1751784;79;21073;-69
2021/07/20 08:34:10;;;;;;;10.80;9.15;;;;;;;28.94;55.76;99277.75;1757183;79;21115;-70
2021/07/20 08:36:39;;;;;;;10.20;9.20;;;;;;;28.94;54.48;99271.48;1750076;79;21010;-68
2021/07/20 08:39:10;;;;;;;11.80;9.78;;;;;;;28.92;53.72;99273.14;1752617;81;21053;-69
2021/07/20 08:42:22;;;;;;;10.58;9.48;;;;;;;28.92;53.75;99269.61;1757049;79;21117;-69
2021/07/20 08:45:17;;;;;;;10.98;9.68;;;;;;;28.93;54.04;99267.11;1740411;79;21561;-71
2021/07/20 08:48:15;;;;;;;11.03;10.03;;;;;;;28.92;54.41;99268.24;1736784;81;21750;-70
2021/07/20 08:51:00;;;;;;;11.73;10.53;;;;;;;28.91;54.93;99267.41;1741534;81;21121;-70
2021/07/20 08:53:34;;;;;;;11.68;10.48;;;;;;;28.92;55.28;99257.30;1740496;81;21068;-69
2021/07/20 08:56:02;;;;;;;11.22;10.03;;;;;;;28.92;55.53;99264.95;1734224;81;21118;-69
2021/07/20 08:58:49;;;;;;;11.97;10.78;;;;;;;28.93;55.59;99256.17;1725844;81;21081;-70
2021/07/20 09:02:03;;;;;;;10.85;9.95;;;;;;;28.95;55.67;99259.42;1741698;81;21143;-71
2021/07/20 09:04:41;;;;;;;12.35;10.68;;;;;;;28.97;55.80;99258.56;1743278;81;21049;-69
2021/07/20 09:07:12;;;;;;;11.08;9.98;;;;;;;28.93;55.82;99247.41;1745772;81;21054;-71
2021/07/20 09:09:46;;;;;;;11.80;10.60;;;;;;;28.93;55.05;99250.14;1741170;81;21084;-70
2021/07/20 09:12:20;;;;;;;11.18;10.05;;;;;;;28.93;54.56;99248.78;1747593;81;21015;-69
2021/07/20 09:15:12;;;;;;;10.82;9.55;;;;;;;28.93;54.30;99243.31;1739332;81;21557;-69
2021/07/20 09:18:14;;;;;;;11.22;10.20;;;;;;;28.94;54.43;99235.38;1743161;81;21085;-70
2021/07/20 09:20:43;;;;;;;11.75;10.65;;;;;;;28.95;54.73;99234.25;1745731;81;21456;-71
2021/07/20 09:23:17;;;;;;;10.88;9.88;;;;;;;28.97;55.00;99230.66;1738975;81;21049;-69
2021/07/20 09:25:55;;;;;;;12.53;10.00;;;;;;;28.98;55.19;99226.82;1739952;81;21056;-68
2021/07/20 09:28:59;;;;;;;11.40;10.40;;;;;;;29.01;55.28;99231.70;1744086;81;22605;-68
2021/07/20 09:31:50;;;;;;;10.82;9.73;;;;;;;29.04;55.03;99229.47;1735829;81;21128;-68
2021/07/20 09:34:47;;;;;;;11.15;10.08;;;;;;;29.06;55.16;99237.61;1701269;81;21090;-69
2021/07/20 09:37:21;;;;;;;10.98;9.90;;;;;;;29.06;55.32;99227.23;1740421;81;21086;-69
2021/07/20 09:40:36;;;;;;;9.98;9.08;;;;;;;29.07;55.43;99226.94;1740688;81;21052;-66
2021/07/20 09:43:12;;;;;;;11.60;8.73;;;;;;;29.09;55.19;99224.71;1744189;81;21173;-66
2021/07/20 09:45:43;;;;;;;9.83;8.88;;;;;;;29.10;55.07;99220.84;1745762;81;21100;-70
2021/07/20 09:48:22;;;;;;;10.53;9.15;;;;;;;29.13;59.70;99217.55;1753710;79;21717;-70
2021/07/20 09:51:29;;;;;;;10.32;8.85;;;;;;;29.14;59.99;99211.52;1758544;79;21056;-70
2021/07/20 09:54:21;;;;;;;10.28;9.25;;;;;;;29.13;59.88;99208.52;1752802;79;21383;-70
2021/07/20 09:57:00;;;;;;;;;;;;;;;29.11;62.08;99211.55;1755724;79;21141;-70
2021/07/20 09:59:59;;;;;;;9.25;8.45;;;;;;;29.10;64.02;99208.55;1753992;79;20155;-70
2021/07/20 10:02:37;;;;;;;9.75;8.85;;;;;;;29.04;64.55;99205.66;1736400;80;21115;-69
2021/07/20 10:05:20;;;;;;;10.35;9.45;;;;;;;29.05;65.26;99194.96;1753838;79;21049;-70
2021/07/20 10:07:54;;;;;;;;;;;;;;;29.07;66.00;99192.77;1751697;79;21037;-70
2021/07/20 10:10:44;;;;;;;9.53;8.73;;;;;;;29.09;65.97;99193.27;1759751;79;21149;-68
2021/07/20 10:13:23;;;;;;;11.10;10.00;;;;;;;29.02;66.11;99197.75;1755650;79;21666;-68
2021/07/20 10:16:17;;;;;;;10.00;9.13;;;;;;;29.05;66.30;99209.20;1750903;79;21556;-70
2021/07/20 10:18:49;;;;;;;12.30;9.10;;;;;;;29.05;66.57;99205.09;1751182;79;21008;-68
2021/07/20 10:21:19;;;;;;;9.65;8.75;;;;;;;29.04;66.70;99194.72;1754655;79;21570;-68
2021/07/20 10:24:15;;;;;;;9.80;8.88;;;;;;;29.09;67.01;99193.27;1756921;79;21593;-70
2021/07/20 10:27:11;;;;;;;9.75;8.85;;;;;;;29.18;67.04;99191.45;1755671;79;21033;-71
2021/07/20 10:29:57;;;;;;;9.68;8.88;;;;;;;29.17;67.10;99176.16;1752693;79;21069;-71
2021/07/20 10:32:51;;;;;;;11.20;9.03;;;;;;;29.16;67.30;99175.90;1756757;79;21073;-70
2021/07/20 10:35:28;;;;;;;10.28;9.33;;;;;;;29.17;67.42;99176.16;1755387;79;21752;-71
2021/07/20 10:37:56;;;;;;;10.38;9.45;;;;;;;29.18;67.70;99181.88;1744529;80;21143;-75
2021/07/20 10:40:24;;;;;;;10.53;9.58;;;;;;;29.21;67.92;99187.31;1751195;80;21400;-73
2021/07/20 10:43:01;;;;;;;10.00;9.00;;;;;;;29.22;67.63;99188.91;1738890;80;21270;-71
2021/07/20 10:45:32;;;;;;;9.95;9.15;;;;;;;29.23;66.85;99187.01;1748464;80;21104;-70
2021/07/20 10:48:15;;;;;;;9.98;9.15;;;;;;;29.26;67.00;99182.28;1741871;80;21513;-70
2021/07/20 10:51:12;;;;;;;9.95;9.05;;;;;;;29.27;67.27;99174.34;1740262;80;25548;-69
2021/07/20 10:54:15;;;;;;;10.90;9.75;;;;;;;29.28;66.90;99178.11;1738764;80;21038;-71
2021/07/20 10:56:52;;;;;;;9.98;9.18;;;;;;;29.29;67.22;99174.84;1715860;81;21037;-71
2021/07/20 10:59:29;;;;;;;10.23;9.33;;;;;;;29.29;67.34;99171.54;1720490;80;21544;-71
2021/07/20 11:02:44;;;;;;;10.28;9.28;;;;;;;29.30;66.99;99177.81;1726526;81;21499;-70
2021/07/20 11:05:11;;;;;;;10.35;9.35;;;;;;;29.33;67.13;99174.48;1726481;80;21140;-70
2021/07/20 11:07:47;;;;;;;10.93;9.93;;;;;;;29.32;66.95;99171.47;1687151;82;21607;-71
2021/07/20 11:10:27;;;;;;;11.90;8.98;;;;;;;29.32;67.08;99165.47;1722576;81;21342;-71
2021/07/20 11:12:58;;;;;;;10.30;9.45;;;;;;;29.37;65.84;99161.80;1732359;81;21057;-71
2021/07/20 11:15:25;;;;;;;10.30;9.40;;;;;;;29.47;66.24;99167.61;1732892;81;21533;-71
2021/07/20 11:17:52;;;;;;;10.32;9.33;;;;;;;29.44;65.28;99162.20;1738088;81;21152;-71
2021/07/20 11:20:20;;;;;;;10.65;9.70;;;;;;;29.46;65.50;99169.54;1734633;81;21130;-70
2021/07/20 11:22:46;;;;;;;9.83;9.03;;;;;;;29.45;65.08;99162.44;1701437;82;22132;-72
2021/07/20 11:25:13;;;;;;;9.48;8.68;;;;;;;29.46;64.77;99159.13;1708227;82;21288;-71
2021/07/20 11:27:42;;;;;;;9.73;8.83;;;;;;;29.47;64.43;99166.23;1729143;80;21088;-70
2021/07/20 11:30:13;;;;;;;9.70;8.90;;;;;;;29.49;65.01;99166.73;1728138;80;21139;-72
2021/07/20 11:32:42;;;;;;;9.68;8.88;;;;;;;29.49;65.70;99166.73;1705863;80;21112;-72
2021/07/20 11:35:17;;;;;;;10.25;9.35;;;;;;;29.49;65.60;99166.17;1687153;82;21092;-70
2021/07/20 11:37:48;;;;;;;10.25;9.23;;;;;;;29.49;66.08;99158.53;1719715;81;21548;-70
2021/07/20 11:40:22;;;;;;;10.80;9.78;;;;;;;29.49;66.05;99153.05;1739702;80;21049;-69
2021/07/20 11:42:59;;;;;;;10.90;9.90;;;;;;;29.49;66.31;99153.05;1740323;80;21818;-72
2021/07/20 11:45:36;;;;;;;9.83;8.93;;;;;;;29.48;65.42;99148.72;1735371;80;22182;-74
2021/07/20 11:48:06;;;;;;;10.88;9.88;;;;;;;29.45;65.91;99143.28;1735489;81;21025;-70
2021/07/20 11:51:23;;;;;;;10.53;9.63;;;;;;;29.44;65.84;99147.15;1735257;80;21154;-70
2021/07/20 11:54:41;;;;;;;9.80;9.00;;;;;;;29.44;66.08;99140.84;1736855;80;21029;-69
2021/07/20 11:57:54;;;;;;;10.78;9.75;;;;;;;29.40;66.17;99136.58;1737121;80;21147;-68
2021/07/20 12:00:32;;;;;;;11.05;10.18;;;;;;;29.37;66.40;99138.55;1755742;80;21083;-68